Flight Track Log - Related Links

Times and Time Zones

All times are in EDT time to prevent confusion due to time zone crossing. See the UAL582 flight status page for this flight to view local times or setup timezone preferences in your user account.


Time Position Orientation Groundspeed Altitude Reporting Facility
EDT Latitude Longitude Course Direction KTS MPH feet Rate Location/Type
Sun 05:31:19 PM 43.6500 -79.6833 277° West 170 196 2,400  Level Toronto Center
Sun 05:32:19 PM 43.6167 -79.7333 227° Southwest 220 253 4,700 2,700 Climbing Toronto Center
Sun 05:33:00 PM 43.7028 -79.9996 277° West  Level FlightAware Approximate
Sun 05:33:19 PM 43.6500 -79.8000 305° West 240 276 7,800  Level Toronto Center
Sun 05:34:00 PM 43.7135 -80.1283 277° West  Level FlightAware Approximate
Sun 05:34:19 PM 43.7000 -79.8667 316° Northwest 250 288 10,300  Level Toronto Center
Sun 05:35:00 PM 43.7204 -80.2573 277° West  Level FlightAware Approximate
Sun 05:35:19 PM 43.7500 -79.9500 310° West 290 334 12,200  Level Toronto Center
Sun 05:36:00 PM 43.7321 -80.3859 277° West  Level FlightAware Approximate
Sun 05:36:19 PM 43.7500 -80.1000 270° West 310 357 14,800  Level Toronto Center
Sun 05:37:19 PM 43.7500 -80.2167 270° West 320 368 16,700 1,550 Climbing Toronto Center
Sun 05:38:19 PM 43.7500 -80.3500 270° West 350 403 17,900 1,150 Climbing Toronto Center
Sun 05:39:19 PM 43.7500 -80.4833 270° West 380 437 19,000 1,350 Climbing Toronto Center
Sun 05:40:19 PM 43.7167 -80.6500 255° West 400 460 20,600 1,400 Climbing Toronto Center
Sun 05:41:19 PM 43.6833 -80.7833 251° West 410 472 21,800 1,100 Climbing Toronto Center
Sun 05:42:19 PM 43.6333 -80.9500 248° West 420 483 22,800 1,000 Climbing Toronto Center
Sun 05:43:19 PM 43.6000 -81.1000 253° West 440 506 23,800 1,050 Climbing Toronto Center
Sun 05:44:19 PM 43.5667 -81.2833 256° West 440 506 24,900 1,000 Climbing Toronto Center
Sun 05:45:19 PM 43.5333 -81.4500 255° West 450 518 25,800 1,850 Climbing Toronto Center
Sun 05:46:19 PM 43.5000 -81.5833 251° West 440 506 28,600 1,900 Climbing Toronto Center
Sun 05:47:19 PM 43.4667 -81.7500 255° West 420 483 29,600 1,000 Climbing Toronto Center
Sun 05:48:19 PM 43.4333 -81.9000 253° West 430 495 30,600 1,100 Climbing Toronto Center
Sun 05:49:19 PM 43.3833 -82.0667 248° West 430 495 31,800 1,172 Climbing Toronto Center
Sun 05:49:46 PM 43.3894 -82.1458 276° West 425 489 32,300 1,300 Climbing Cleveland Center
Sun 05:50:19 PM 43.3500 -82.2167 233° Southwest 430 495 33,100 968 Climbing Toronto Center
Sun 05:51:19 PM 43.3167 -82.3833 255° West 420 483 33,800 450 Climbing Toronto Center
Sun 05:52:19 PM 43.2833 -82.5333 253° West 430 495 34,000 100 Climbing Toronto Center
Sun 05:53:19 PM 43.2333 -82.7000 248° West 430 495 34,000  Level Toronto Center
Sun 05:53:46 PM 43.2417 -82.7719 279° West 430 495 34,000  Level Cleveland Center
Sun 05:54:46 PM 43.1972 -82.9211 248° West 436 502 34,000  Level Cleveland Center
Sun 05:55:46 PM 43.1567 -83.0678 249° West 447 514 34,000  Level Cleveland Center
Sun 05:56:46 PM 43.1158 -83.2197 250° West 442 509 34,000  Level Cleveland Center
Sun 05:57:46 PM 43.0725 -83.3769 249° West 442 509 34,000 -350 Level Cleveland Center
Sun 05:58:46 PM 43.0292 -83.5256 248° West 442 509 33,300 -850 Descending Cleveland Center
Sun 05:59:46 PM 42.9833 -83.6825 248° West 442 509 32,300 -650 Descending Cleveland Center
Sun 06:00:46 PM 42.9561 -83.8400 257° West 437 503 32,000 -150 Descending Cleveland Center
Sun 06:01:46 PM 42.9414 -83.9925 263° West 426 490 32,000  Level Cleveland Center
Sun 06:03:25 PM 42.9178 -84.2428 263° West 403 464 32,000 -37 Level Chicago Center
Sun 06:04:28 PM 42.9031 -84.3958 263° West 405 466 31,900  Descending Chicago Center
Sun 06:05:30 PM 42.8883 -84.5478 263° West 406 467 32,000 48 Climbing Chicago Center
Sun 06:06:32 PM 42.8686 -84.7297 262° West 405 466 32,000  Level Chicago Center
Sun 06:07:34 PM 42.8536 -84.8794 262° West 399 459 32,000  Level Chicago Center
Sun 06:08:36 PM 42.8381 -85.0289 262° West 400 460 32,000  Level Chicago Center
Sun 06:09:38 PM 42.8211 -85.1819 261° West 408 470 32,000  Level Chicago Center
Sun 06:10:40 PM 42.8036 -85.3431 262° West 426 490 32,000 -145 Level Chicago Center
Sun 06:11:42 PM 42.7853 -85.5031 261° West 427 491 31,700 -726 Descending Chicago Center
Sun 06:12:44 PM 42.7578 -85.6608 257° West 427 491 30,500 -2,032 Descending Chicago Center
Sun 06:13:46 PM 42.7231 -85.8492 256° West 426 490 27,500 -2,855 Descending Chicago Center
Sun 06:14:48 PM 42.6961 -85.9972 256° West 410 472 24,600 -2,371 Descending Chicago Center
Sun 06:15:50 PM 42.6697 -86.1464 257° West 404 465 22,600 -2,081 Descending Chicago Center
Sun 06:16:52 PM 42.6433 -86.2881 256° West 390 449 20,300 -1,742 Descending Chicago Center
Sun 06:17:54 PM 42.6161 -86.4239 255° West 376 433 19,000 -1,548 Descending Chicago Center
Sun 06:18:56 PM 42.5917 -86.5583 256° West 369 425 17,100 -1,887 Descending Chicago Center
Sun 06:19:58 PM 42.5669 -86.6903 256° West 362 417 15,100 -2,064 Descending Chicago Center
Sun 06:21:01 PM 42.5292 -86.8439 252° West 357 411 12,800 -1,920 Descending Chicago Center
Sun 06:22:03 PM 42.4958 -86.9667 250° West 350 403 11,100 -1,065 Descending Chicago Center
Sun 06:23:05 PM 42.4653 -87.0711 248° West 301 346 10,600 -968 Descending Chicago Center
Sun 06:24:07 PM 42.4389 -87.1664 249° West 274 315 9,100 -774 Descending Chicago Center
Sun 06:25:09 PM 42.4133 -87.2628 250° West 274 315 9,000 -48 Descending Chicago Center
Sun 06:26:11 PM 42.3342 -87.2822 190° South 300 345 9,000  Level Chicago Center
Sun 06:27:13 PM 42.2392 -87.2683 174° South 308 354 9,000  Level Chicago Center
Sun 06:28:15 PM 42.1525 -87.2547 173° South 312 359 9,000  Level Chicago Center
Sun 06:29:17 PM 42.0539 -87.2400 174° South 299 344 9,000  Level Chicago Center
Sun 06:30:19 PM 41.9819 -87.2297 174° South 265 305 9,000  Level Chicago Center
Sun 06:31:21 PM 41.9767 -87.3003 264° West 218 251 9,000 -145 Level Chicago Center
Sun 06:32:23 PM 41.9828 -87.3806 276° West 219 252 8,700 -593 Descending Chicago Center
Sun 06:32:52 PM 41.9833 -87.4167 271° West 208 239 8,100 -1,483 Descending Chicago TRACON
Sun 06:33:52 PM 41.9833 -87.5000 270° West 218 251 6,500 -1,450 Descending Chicago TRACON
Sun 06:34:52 PM 41.9833 -87.5833 270° West 203 234 5,200 -1,200 Descending Chicago TRACON
Sun 06:35:52 PM 41.9833 -87.6500 270° West 203 234 4,100 -1,100 Descending Chicago TRACON

Login

Don't have an account? Register now (free) for customized features, flight alerts, and more!